createdAt,value
2023-03-06T00:01:10.723Z,68.66
2023-03-06T00:03:38.839Z,68.63
2023-03-06T00:06:07.556Z,68.49
2023-03-06T00:08:35.631Z,68.26
2023-03-06T00:11:03.585Z,68.95
2023-03-06T00:13:32.216Z,68.29
2023-03-06T00:16:01.679Z,69.27
2023-03-06T00:18:31.147Z,69.32
2023-03-06T00:20:59.139Z,69.31
2023-03-06T00:23:28.054Z,69.14
2023-03-06T00:25:56.094Z,69.11
2023-03-06T00:28:24.280Z,68.73
2023-03-06T00:30:52.351Z,68.96
2023-03-06T00:33:20.400Z,68.69
2023-03-06T00:35:49.741Z,68.35
2023-03-06T00:38:17.813Z,68.45
2023-03-06T00:40:45.991Z,68.42
2023-03-06T00:43:14.438Z,68.40
2023-03-06T00:45:42.577Z,68.30
2023-03-06T00:48:10.725Z,68.28
2023-03-06T00:50:38.782Z,67.70
2023-03-06T00:53:11.116Z,68.06
2023-03-06T00:55:39.115Z,67.91
2023-03-06T00:58:07.153Z,68.45
2023-03-06T01:00:35.191Z,68.18
2023-03-06T01:03:03.531Z,68.93
2023-03-06T01:05:32.158Z,68.60
2023-03-06T01:08:00.277Z,69.61
2023-03-06T01:10:29.798Z,69.14
2023-03-06T01:12:58.016Z,69.49
2023-03-06T01:15:26.780Z,69.40
2023-03-06T01:17:55.170Z,69.85
2023-03-06T01:20:23.517Z,69.72
2023-03-06T01:22:51.602Z,70.52
2023-03-06T01:25:19.678Z,70.07
2023-03-06T01:27:49.147Z,71.05
2023-03-06T01:30:17.369Z,71.03
2023-03-06T01:32:45.447Z,71.49
2023-03-06T01:35:14.176Z,70.58
2023-03-06T01:37:43.027Z,70.88
2023-03-06T01:40:13.502Z,71.11
2023-03-06T01:42:42.505Z,71.07
2023-03-06T01:45:43.748Z,71.00
2023-03-06T01:48:13.696Z,71.16
2023-03-06T01:50:42.100Z,70.66
2023-03-06T01:53:10.454Z,71.01
2023-03-06T01:55:38.717Z,70.73
2023-03-06T01:58:10.077Z,70.92
2023-03-06T02:00:38.418Z,71.25
2023-03-06T02:03:11.077Z,72.04
2023-03-06T02:05:42.656Z,72.89
2023-03-06T02:08:11.947Z,73.12
2023-03-06T02:10:43.547Z,73.82
2023-03-06T02:13:11.703Z,73.60
2023-03-06T02:15:40.196Z,73.56
2023-03-06T02:18:08.458Z,72.94
2023-03-06T02:20:44.871Z,73.32
2023-03-06T02:23:21.192Z,72.87
2023-03-06T02:25:52.580Z,73.11
2023-03-06T02:28:23.187Z,73.38
2023-03-06T02:30:53.510Z,72.78
2023-03-06T02:33:24.266Z,73.86
2023-03-06T02:35:55.165Z,73.69
2023-03-06T02:38:26.462Z,73.55
2023-03-06T02:40:58.063Z,73.53
2023-03-06T02:43:30.730Z,74.19
2023-03-06T02:45:59.099Z,74.15
2023-03-06T02:48:27.272Z,74.89
2023-03-06T02:50:55.364Z,74.95
2023-03-06T02:53:23.747Z,74.64
2023-03-06T02:55:52.335Z,75.16
2023-03-06T02:58:21.874Z,75.43
2023-03-06T03:00:50.615Z,76.06
2023-03-06T03:03:19.177Z,76.86
2023-03-06T03:05:47.223Z,77.34
2023-03-06T03:08:15.265Z,77.77
2023-03-06T03:10:43.319Z,78.23
2023-03-06T03:13:11.410Z,78.85
2023-03-06T03:15:41.300Z,79.03
2023-03-06T03:18:10.338Z,80.02
2023-03-06T03:20:38.404Z,80.06
2023-03-06T03:23:06.424Z,80.88
2023-03-06T03:25:34.445Z,81.06
2023-03-06T03:28:02.624Z,81.14
2023-03-06T03:30:32.147Z,82.11
2023-03-06T03:33:01.562Z,82.57
2023-03-06T03:35:29.722Z,83.00
2023-03-06T03:37:57.842Z,82.58
2023-03-06T03:40:25.860Z,82.64
2023-03-06T03:42:54.022Z,82.84
2023-03-06T03:45:22.258Z,83.12
2023-03-06T03:47:50.308Z,82.99
2023-03-06T03:50:20.322Z,82.42
2023-03-06T03:52:48.296Z,82.50
2023-03-06T03:55:16.341Z,83.08
2023-03-06T03:57:44.491Z,82.56
2023-03-06T04:00:16.396Z,82.49
2023-03-06T04:02:45.190Z,82.40
2023-03-06T04:05:15.021Z,82.16
2023-03-06T04:07:44.878Z,81.56
2023-03-06T04:10:14.010Z,81.93
2023-03-06T04:12:42.265Z,81.59
2023-03-06T04:15:11.177Z,81.03
2023-03-06T04:17:39.189Z,81.22
2023-03-06T04:20:08.397Z,81.23
2023-03-06T04:22:36.381Z,81.39
2023-03-06T04:25:06.665Z,81.39
2023-03-06T04:27:34.757Z,81.72
2023-03-06T04:30:02.845Z,81.57
2023-03-06T04:32:30.991Z,82.12
2023-03-06T04:34:59.230Z,82.10
2023-03-06T04:37:27.644Z,81.69
2023-03-06T04:39:55.921Z,81.92
2023-03-06T04:42:25.400Z,81.98
2023-03-06T04:44:53.500Z,81.72
2023-03-06T04:47:21.644Z,81.70
2023-03-06T04:49:49.788Z,82.28
2023-03-06T04:52:17.923Z,82.67
2023-03-06T04:54:46.484Z,83.16
2023-03-06T04:57:15.169Z,83.51
2023-03-06T04:59:44.638Z,83.82
2023-03-06T05:02:12.644Z,84.09
2023-03-06T05:04:40.807Z,83.91
2023-03-06T05:07:08.933Z,83.72
2023-03-06T05:09:39.169Z,83.83
2023-03-06T05:12:07.706Z,83.63
2023-03-06T05:14:35.822Z,83.52
2023-03-06T05:17:05.250Z,83.88
2023-03-06T05:19:33.307Z,83.84
2023-03-06T05:22:01.375Z,83.63
2023-03-06T05:24:29.618Z,83.53
2023-03-06T05:26:57.685Z,83.54
2023-03-06T05:29:25.785Z,83.45
2023-03-06T05:31:54.013Z,83.12
2023-03-06T05:34:23.831Z,82.81
2023-03-06T05:36:51.943Z,82.61
2023-03-06T05:39:20.065Z,82.46
2023-03-06T05:41:48.035Z,82.13
2023-03-06T05:44:16.065Z,82.11
2023-03-06T05:46:44.016Z,81.97
2023-03-06T05:49:12.109Z,81.97
2023-03-06T05:51:41.534Z,81.67
2023-03-06T05:54:09.601Z,81.80
2023-03-06T05:56:37.749Z,81.40
2023-03-06T05:59:05.777Z,81.17
2023-03-06T06:01:33.745Z,80.42
2023-03-06T06:04:01.839Z,79.92
2023-03-06T06:06:29.879Z,80.05
2023-03-06T06:08:59.333Z,79.72
2023-03-06T06:11:27.328Z,79.46
2023-03-06T06:13:55.270Z,78.76
2023-03-06T06:16:23.384Z,78.47
2023-03-06T06:18:51.423Z,77.47
2023-03-06T06:21:19.512Z,77.37
2023-03-06T06:23:47.935Z,76.30
2023-03-06T06:26:17.517Z,75.71
2023-03-06T06:28:45.572Z,75.34
2023-03-06T06:31:14.573Z,74.78
2023-03-06T06:33:43.193Z,74.20
2023-03-06T06:36:19.156Z,73.28
2023-03-06T06:38:47.255Z,72.43
2023-03-06T06:44:08.597Z,71.96
2023-03-06T06:47:20.644Z,71.05
2023-03-06T06:49:25.496Z,70.29
2023-03-06T06:51:53.524Z,70.29
2023-03-06T06:54:22.390Z,69.51
2023-03-06T06:56:50.496Z,70.52
2023-03-06T06:59:20.309Z,70.32
2023-03-06T07:01:48.418Z,69.48
2023-03-06T07:04:18.101Z,69.31
2023-03-06T07:06:47.505Z,69.12
2023-03-06T07:09:16.247Z,70.24
2023-03-06T07:11:44.243Z,70.39
2023-03-06T07:14:12.338Z,70.25
2023-03-06T07:16:41.728Z,69.41
2023-03-06T07:19:09.961Z,68.71
2023-03-06T07:21:37.995Z,68.75
2023-03-06T07:24:06.501Z,67.82
2023-03-06T07:26:34.991Z,67.93
2023-03-06T07:29:03.769Z,68.04
2023-03-06T07:31:31.958Z,66.92
2023-03-06T07:34:03.875Z,66.93
2023-03-06T07:36:33.376Z,66.59
2023-03-06T07:39:01.728Z,66.56
2023-03-06T07:41:29.810Z,66.66
2023-03-06T07:43:57.881Z,64.98
2023-03-06T07:46:25.902Z,63.36
2023-03-06T07:48:54.264Z,63.20
2023-03-06T07:51:24.033Z,61.81
2023-03-06T07:53:52.080Z,61.33
2023-03-06T07:56:20.263Z,60.47
2023-03-06T07:58:49.016Z,59.64
2023-03-06T08:01:19.906Z,59.58
2023-03-06T08:03:50.087Z,59.59
2023-03-06T08:06:20.262Z,58.78
2023-03-06T08:08:52.497Z,58.21
2023-03-06T08:11:22.568Z,57.58
2023-03-06T08:13:52.816Z,55.74
2023-03-06T08:16:21.537Z,55.55
2023-03-06T08:18:49.818Z,54.75
2023-03-06T08:21:20.195Z,53.97
2023-03-06T08:23:49.734Z,53.30
2023-03-06T08:26:20.082Z,52.10
2023-03-06T08:28:48.747Z,51.60
2023-03-06T08:31:26.166Z,51.29
2023-03-06T08:33:54.651Z,51.07
2023-03-06T08:36:23.966Z,49.93
2023-03-06T08:38:53.723Z,50.01
2023-03-06T08:41:22.720Z,49.13
2023-03-06T08:43:51.729Z,48.62
2023-03-06T08:46:21.394Z,47.62
2023-03-06T08:48:49.499Z,48.05
2023-03-06T08:51:18.005Z,47.41
2023-03-06T08:53:46.331Z,46.80
2023-03-06T08:56:20.482Z,46.56
2023-03-06T08:58:48.985Z,47.21
2023-03-06T09:01:18.264Z,45.51
2023-03-06T09:03:47.054Z,45.84
2023-03-06T09:06:15.648Z,45.55
2023-03-06T09:08:44.787Z,45.96
2023-03-06T09:11:14.155Z,46.76
2023-03-06T09:13:44.517Z,45.66
2023-03-06T09:16:13.536Z,45.54
2023-03-06T09:18:41.973Z,44.43
2023-03-06T09:21:11.021Z,45.32
2023-03-06T09:23:40.580Z,46.08
2023-03-06T09:26:09.068Z,43.42
2023-03-06T09:28:40.631Z,43.28
2023-03-06T09:31:11.376Z,44.23
2023-03-06T09:33:40.221Z,43.57
2023-03-06T09:36:09.941Z,44.04
2023-03-06T09:38:37.973Z,42.64
2023-03-06T09:41:10.279Z,41.01
2023-03-06T09:43:43.507Z,41.24
2023-03-06T09:46:24.321Z,40.34
2023-03-06T09:49:10.519Z,40.76
2023-03-06T09:51:50.979Z,42.11
2023-03-06T09:54:28.053Z,41.00
2023-03-06T09:56:56.204Z,40.81
2023-03-06T09:59:27.664Z,40.24
2023-03-06T10:02:10.199Z,39.55
2023-03-06T10:04:42.022Z,39.40
2023-03-06T10:07:15.934Z,40.48
2023-03-06T10:09:48.532Z,41.44
2023-03-06T10:12:25.013Z,41.19
2023-03-06T10:15:08.158Z,41.92
2023-03-06T10:17:43.271Z,40.73
2023-03-06T10:20:18.780Z,40.77
2023-03-06T10:23:01.238Z,40.45
2023-03-06T10:25:34.498Z,40.24
2023-03-06T10:28:14.119Z,40.60
2023-03-06T10:30:47.734Z,39.16
2023-03-06T10:33:24.820Z,39.32
2023-03-06T10:35:55.244Z,39.04
2023-03-06T10:38:25.149Z,38.60
2023-03-06T10:41:05.436Z,38.59
2023-03-06T10:43:36.172Z,38.78
2023-03-06T10:46:05.143Z,38.35
2023-03-06T10:48:38.138Z,38.07
2023-03-06T10:51:19.405Z,37.28
2023-03-06T10:53:56.490Z,37.72
2023-03-06T10:56:30.319Z,36.66
2023-03-06T10:59:07.841Z,36.39
2023-03-06T11:01:36.084Z,35.48
2023-03-06T11:04:23.084Z,36.27
2023-03-06T11:07:06.681Z,35.87
2023-03-06T11:09:35.334Z,36.34
2023-03-06T11:12:23.360Z,35.72
2023-03-06T11:15:21.110Z,36.28
2023-03-06T11:17:58.848Z,35.05
2023-03-06T11:20:48.470Z,35.33
2023-03-06T11:23:22.765Z,35.30
2023-03-06T11:25:57.489Z,35.27
2023-03-06T11:28:29.733Z,34.48
2023-03-06T11:31:03.093Z,34.48
2023-03-06T11:33:36.792Z,34.04
2023-03-06T11:36:15.690Z,34.19
2023-03-06T11:38:50.087Z,34.63
2023-03-06T11:41:32.405Z,34.27
2023-03-06T11:44:13.788Z,33.78
2023-03-06T11:46:48.818Z,34.36
2023-03-06T11:49:23.972Z,33.90
2023-03-06T11:51:56.590Z,33.36
2023-03-06T11:54:24.830Z,33.24
2023-03-06T11:56:58.699Z,32.86
2023-03-06T11:59:45.969Z,33.36
2023-03-06T12:02:26.532Z,32.99
2023-03-06T12:05:02.972Z,33.98
2023-03-06T12:07:34.915Z,31.91
2023-03-06T12:10:18.455Z,32.67
2023-03-06T12:13:06.847Z,32.32
2023-03-06T12:15:50.387Z,32.34
2023-03-06T12:18:36.308Z,32.29
2023-03-06T12:21:11.103Z,32.31
2023-03-06T12:24:04.190Z,32.40
2023-03-06T12:26:53.469Z,31.73
2023-03-06T12:29:37.495Z,32.85
2023-03-06T12:32:16.913Z,31.66
2023-03-06T12:35:17.651Z,31.68
2023-03-06T12:37:59.444Z,31.93
2023-03-06T12:40:43.372Z,32.24
2023-03-06T12:43:34.732Z,31.70
2023-03-06T12:46:09.693Z,32.43
2023-03-06T12:48:38.544Z,32.12
2023-03-06T12:51:08.973Z,32.04
2023-03-06T12:53:38.525Z,32.64
2023-03-06T12:56:08.977Z,31.79
2023-03-06T12:58:52.281Z,31.14
2023-03-06T13:01:58.032Z,29.08
2023-03-06T13:05:01.414Z,28.27
2023-03-06T13:07:55.659Z,26.57
2023-03-06T13:10:27.884Z,26.85
2023-03-06T13:13:01.042Z,26.15
2023-03-06T13:15:36.787Z,26.57
2023-03-06T13:18:56.890Z,27.03
2023-03-06T13:22:10.570Z,27.47
2023-03-06T13:24:38.871Z,26.03
2023-03-06T13:27:09.920Z,24.89
2023-03-06T13:30:08.261Z,22.84
2023-03-06T13:32:37.371Z,23.58
2023-03-06T13:35:53.186Z,20.97
2023-03-06T13:39:01.225Z,18.69
2023-03-06T13:41:54.478Z,18.11
2023-03-06T13:44:51.147Z,18.43
2023-03-06T13:48:06.545Z,18.29
2023-03-06T13:50:41.131Z,17.86
2023-03-06T13:53:33.080Z,17.28
2023-03-06T13:56:14.819Z,15.86
2023-03-06T13:59:04.410Z,14.62
2023-03-06T14:01:49.997Z,14.13
2023-03-06T14:04:38.974Z,12.46
2023-03-06T14:07:25.928Z,12.53
2023-03-06T14:10:12.728Z,12.76
2023-03-06T14:12:44.566Z,13.19
2023-03-06T14:15:20.177Z,13.31
2023-03-06T14:17:57.491Z,12.23
2023-03-06T14:20:33.413Z,12.08
2023-03-06T14:23:27.657Z,12.08
2023-03-06T14:26:00.118Z,12.44
2023-03-06T14:28:30.035Z,12.76
2023-03-06T14:30:59.903Z,12.42
2023-03-06T14:33:32.661Z,12.05
2023-03-06T14:36:04.290Z,11.81
2023-03-06T14:38:37.467Z,11.61
2023-03-06T14:41:06.818Z,11.97
2023-03-06T14:43:35.077Z,11.84
2023-03-06T14:46:05.131Z,11.79
2023-03-06T14:48:42.386Z,11.99
2023-03-06T14:51:18.083Z,12.33
2023-03-06T14:53:48.547Z,12.35
2023-03-06T14:56:20.124Z,13.15
2023-03-06T14:58:54.773Z,13.01
2023-03-06T15:01:33.220Z,13.09
2023-03-06T15:04:03.016Z,13.36
2023-03-06T15:06:36.440Z,13.53
2023-03-06T15:09:10.236Z,13.88
2023-03-06T15:11:59.346Z,14.58
2023-03-06T15:14:36.949Z,15.09
2023-03-06T15:17:29.901Z,15.07
2023-03-06T15:19:59.764Z,15.50
2023-03-06T15:22:32.831Z,15.71
2023-03-06T15:25:30.080Z,15.08
2023-03-06T15:27:59.927Z,16.41
2023-03-06T15:30:31.126Z,16.95
2023-03-06T15:33:21.210Z,17.92
2023-03-06T15:35:55.053Z,18.88
2023-03-06T15:38:31.101Z,20.18
2023-03-06T15:41:01.261Z,21.08
2023-03-06T15:43:30.960Z,21.90
2023-03-06T15:46:01.630Z,22.43
2023-03-06T15:48:29.831Z,23.85
2023-03-06T15:50:58.068Z,24.67
2023-03-06T15:53:28.473Z,25.35
2023-03-06T15:55:57.471Z,25.69
2023-03-06T15:58:26.944Z,26.39
2023-03-06T16:00:55.114Z,27.28
2023-03-06T16:03:23.216Z,27.81
2023-03-06T16:05:51.250Z,28.27
2023-03-06T16:08:19.350Z,29.02
2023-03-06T16:10:50.592Z,29.93
2023-03-06T16:13:24.845Z,30.12
2023-03-06T16:15:53.242Z,30.44
2023-03-06T16:18:21.519Z,31.51
2023-03-06T16:20:50.944Z,31.98
2023-03-06T16:23:19.135Z,32.32
2023-03-06T16:25:50.529Z,33.04
2023-03-06T16:28:18.943Z,33.46
2023-03-06T16:30:47.082Z,34.38
2023-03-06T16:33:15.695Z,35.54
2023-03-06T16:35:46.596Z,35.65
2023-03-06T16:38:15.798Z,36.35
2023-03-06T16:40:43.758Z,37.22
2023-03-06T16:43:16.158Z,37.10
2023-03-06T16:45:44.794Z,37.60
2023-03-06T16:48:17.074Z,38.84
2023-03-06T16:50:46.152Z,39.17
2023-03-06T16:53:14.193Z,39.49
2023-03-06T16:55:42.762Z,39.88
2023-03-06T16:58:12.320Z,40.09
2023-03-06T17:00:40.448Z,40.46
2023-03-06T17:03:08.729Z,40.80
2023-03-06T17:05:39.961Z,41.28
2023-03-06T17:08:08.040Z,42.90
2023-03-06T17:10:36.264Z,43.21
2023-03-06T17:13:05.170Z,42.67
2023-03-06T17:15:34.661Z,42.27
2023-03-06T17:18:02.784Z,42.03
2023-03-06T17:20:30.923Z,42.75
2023-03-06T17:22:59.054Z,42.78
2023-03-06T17:25:26.979Z,42.98
2023-03-06T17:27:55.064Z,43.16
2023-03-06T17:30:23.364Z,43.22
2023-03-06T17:32:53.745Z,43.78
2023-03-06T17:35:21.797Z,43.95
2023-03-06T17:37:49.924Z,44.29
2023-03-06T17:40:18.166Z,44.20
2023-03-06T17:42:46.151Z,44.59
2023-03-06T17:45:14.137Z,44.48
2023-03-06T17:47:42.253Z,45.19
2023-03-06T17:50:12.933Z,46.09
2023-03-06T17:52:41.136Z,45.52
2023-03-06T17:55:10.072Z,46.19
2023-03-06T17:57:38.001Z,46.07
2023-03-06T18:00:07.699Z,46.23
2023-03-06T18:02:35.809Z,46.63
2023-03-06T18:05:06.402Z,46.98
2023-03-06T18:07:35.958Z,46.75
2023-03-06T18:10:04.445Z,46.38
2023-03-06T18:12:32.742Z,46.58
2023-03-06T18:15:00.808Z,46.67
2023-03-06T18:17:28.876Z,47.38
2023-03-06T18:19:57.176Z,47.30
2023-03-06T18:22:25.280Z,47.80
2023-03-06T18:24:54.659Z,49.01
2023-03-06T18:27:22.833Z,48.69
2023-03-06T18:29:52.217Z,48.61
2023-03-06T18:32:20.201Z,47.78
2023-03-06T18:34:50.682Z,48.28
2023-03-06T18:37:18.863Z,47.61
2023-03-06T18:39:47.129Z,47.84
2023-03-06T18:42:16.640Z,47.73
2023-03-06T18:44:47.779Z,48.49
2023-03-06T18:47:16.273Z,48.68
2023-03-06T18:49:46.004Z,49.04
2023-03-06T18:52:14.028Z,49.14
2023-03-06T18:54:42.296Z,49.16
2023-03-06T18:57:11.386Z,49.57
2023-03-06T18:59:40.876Z,50.06
2023-03-06T19:02:08.955Z,49.37
2023-03-06T19:04:38.034Z,49.54
2023-03-06T19:07:06.235Z,49.77
2023-03-06T19:09:34.581Z,49.74
2023-03-06T19:12:03.765Z,49.87
2023-03-06T19:14:31.867Z,50.31
2023-03-06T19:17:01.956Z,51.91
2023-03-06T19:19:30.060Z,51.38
2023-03-06T19:21:59.564Z,51.97
2023-03-06T19:24:27.957Z,51.42
2023-03-06T19:26:55.961Z,52.11
2023-03-06T19:29:23.997Z,52.06
2023-03-06T19:31:52.276Z,52.89
2023-03-06T19:34:21.783Z,52.46
2023-03-06T19:36:53.608Z,52.88
2023-03-06T19:39:21.551Z,52.60
2023-03-06T19:41:49.547Z,53.77
2023-03-06T19:44:17.897Z,53.36
2023-03-06T19:46:45.940Z,53.25
2023-03-06T19:49:16.911Z,53.60
2023-03-06T19:51:46.408Z,53.77
2023-03-06T19:54:15.361Z,54.15
2023-03-06T19:56:43.827Z,54.13
2023-03-06T19:59:11.943Z,54.79
2023-03-06T20:01:40.458Z,55.28
2023-03-06T20:04:08.547Z,54.85
2023-03-06T20:06:37.757Z,55.26
2023-03-06T20:09:09.632Z,55.17
2023-03-06T20:11:37.834Z,55.17
2023-03-06T20:14:08.026Z,56.46
2023-03-06T20:16:37.281Z,55.83
2023-03-06T20:19:06.487Z,56.90
2023-03-06T20:21:37.657Z,57.03
2023-03-06T20:24:09.282Z,56.85
2023-03-06T20:26:38.633Z,57.12
2023-03-06T20:29:06.717Z,57.34
2023-03-06T20:31:34.754Z,57.60
2023-03-06T20:34:03.291Z,57.51
2023-03-06T20:36:35.527Z,57.41
2023-03-06T20:39:08.889Z,57.74
2023-03-06T20:41:37.268Z,58.06
2023-03-06T20:44:07.655Z,58.85
2023-03-06T20:46:36.587Z,58.80
2023-03-06T20:49:05.276Z,58.63
2023-03-06T20:51:36.257Z,59.35
2023-03-06T20:54:04.708Z,59.99
2023-03-06T20:56:36.346Z,60.19
2023-03-06T20:59:05.793Z,61.77
2023-03-06T21:01:36.264Z,61.77
2023-03-06T21:04:05.310Z,61.78
2023-03-06T21:06:34.081Z,62.31
2023-03-06T21:09:02.626Z,64.33
2023-03-06T21:11:30.838Z,65.07
2023-03-06T21:14:01.050Z,64.95
2023-03-06T21:16:30.356Z,65.19
2023-03-06T21:19:00.501Z,65.33
2023-03-06T21:21:31.276Z,65.13
2023-03-06T21:23:59.893Z,65.39
2023-03-06T21:26:30.137Z,65.28
2023-03-06T21:28:59.562Z,65.61
2023-03-06T21:31:28.403Z,65.26
2023-03-06T21:33:56.887Z,65.15
2023-03-06T21:36:25.072Z,65.18
2023-03-06T21:38:54.540Z,66.66
2023-03-06T21:41:25.088Z,68.32
2023-03-06T21:43:56.566Z,68.33
2023-03-06T21:46:27.121Z,67.74
2023-03-06T21:48:55.522Z,66.60
2023-03-06T21:51:24.757Z,66.63
2023-03-06T21:53:53.918Z,66.42
2023-03-06T21:56:25.047Z,68.24
2023-03-06T21:58:53.601Z,68.94
2023-03-06T22:01:23.810Z,69.90
2023-03-06T22:03:53.713Z,70.40
2023-03-06T22:06:25.014Z,70.00
2023-03-06T22:08:53.665Z,69.53
2023-03-06T22:11:23.483Z,69.51
2023-03-06T22:13:53.314Z,69.42
2023-03-06T22:16:21.637Z,68.69
2023-03-06T22:18:51.744Z,68.16
2023-03-06T22:21:23.352Z,69.42
2023-03-06T22:23:52.048Z,69.43
2023-03-06T22:26:20.838Z,68.76
2023-03-06T22:28:48.946Z,69.14
2023-03-06T22:31:18.739Z,70.30
2023-03-06T22:33:47.454Z,71.74
2023-03-06T22:36:16.939Z,72.97
2023-03-06T22:38:48.117Z,73.50
2023-03-06T22:41:20.262Z,74.58
2023-03-06T22:43:48.666Z,75.23
2023-03-06T22:46:18.561Z,74.37
2023-03-06T22:48:46.955Z,74.32
2023-03-06T22:51:17.190Z,73.66
2023-03-06T22:53:46.970Z,73.83
2023-03-06T22:56:17.176Z,72.86
2023-03-06T22:58:45.781Z,73.11
2023-03-06T23:01:16.088Z,72.38
2023-03-06T23:03:45.906Z,71.79
2023-03-06T23:06:15.751Z,71.64
2023-03-06T23:08:44.607Z,71.50
2023-03-06T23:11:17.227Z,71.17
2023-03-06T23:13:45.756Z,71.39
2023-03-06T23:16:14.365Z,71.89
2023-03-06T23:18:42.932Z,72.77
2023-03-06T23:21:13.253Z,72.31
2023-03-06T23:23:41.799Z,71.98
2023-03-06T23:26:11.905Z,70.78
2023-03-06T23:28:41.665Z,70.64
2023-03-06T23:31:10.570Z,70.11
2023-03-06T23:33:39.797Z,70.34
2023-03-06T23:36:09.896Z,71.43
2023-03-06T23:38:38.306Z,72.03
2023-03-06T23:41:09.091Z,72.21
2023-03-06T23:43:37.498Z,72.23
2023-03-06T23:46:08.264Z,71.23
2023-03-06T23:48:37.323Z,71.45
2023-03-06T23:51:07.581Z,72.15
2023-03-06T23:53:36.250Z,72.40
2023-03-06T23:56:06.455Z,74.14
2023-03-06T23:58:34.661Z,75.48
